Seaexpressii — HO4619 — position and weather

sailwx.info

Track history (hours):
 
Tides and Currents Weather Stations Pressure Air Temp Water Temp Dewpoint Dewpoint Depression Visibility Wind Speed Wind Dir Waves Ship Positions

Seaexpressii

Last reported at 2017-Feb-07 09:27 UTC. Time now 2017-Feb-19 14:37 UTC.
Position N 26°15' W 079°35'.
Warning: this ship's position is 12 days out of date.

Length 37 m; draft 2.2 m.

Type: Ship (hazmat cat C). MMSI: 356449000.

Date/timePositionNaut miles runAvg speedWind from/ knotsBaromVisibWave heightAir tempDewpointWater temp
2017-Feb-07 09:27N 26°15' W 079°35'910.3
2017-Feb-07 08:33N 26°12' W 079°45'1010.0
2017-Feb-07 07:33N 26°09' W 079°55'10 9.8
2017-Feb-07 06:33N 26°06' W 080°06'3 2.8
2017-Feb-07 05:33N 26°04' W 080°08'0 0.1
2017-Feb-07 04:33N 26°04' W 080°08'0 0.0
2017-Feb-07 03:34N 26°04' W 080°08'0 0.0
2017-Feb-07 02:33N 26°04' W 080°08'0 0.0
2017-Feb-07 01:34N 26°04' W 080°08'4 4.2
2017-Feb-07 00:34N 26°05' W 080°03'1111.0
2017-Feb-06 23:33N 26°01' W 079°52'1110.6
2017-Feb-06 22:33N 25°58' W 079°40'2 0.1
2017-Feb-05 04:34N 25°59' W 079°43'8 7.9
2017-Feb-05 03:33N 26°01' W 079°51'8 7.9
2017-Feb-05 02:33N 26°04' W 079°59'7 6.8
2017-Feb-05 01:33N 26°04' W 080°07'1 0.8
2017-Feb-05 00:33N 26°04' W 080°08'0 0.0
2017-Feb-04 23:33N 26°04' W 080°08'0 0.1
2017-Feb-04 22:33N 26°04' W 080°08'0 0.1
2017-Feb-04 21:33N 26°04' W 080°08'0 0.0
2017-Feb-04 20:33N 26°04' W 080°08'0 0.0
2017-Feb-04 19:33N 26°04' W 080°08'0 0.0
2017-Feb-04 18:34N 26°04' W 080°08'5 5.4
2017-Feb-04 17:34N 26°04' W 080°02'1111.0
2017-Feb-04 16:34N 26°01' W 079°50'11 0.3
2017-Feb-02 21:26N 25°57' W 079°39'8 8.9
2017-Feb-02 20:34N 25°59' W 079°47'8 8.0
2017-Feb-02 19:33N 26°02' W 079°55'8 7.8
2017-Feb-02 18:33N 26°05' W 080°03'4 4.1
2017-Feb-02 17:33N 26°04' W 080°08'0 0.0
2017-Feb-02 16:33N 26°04' W 080°08'0 0.0
2017-Feb-02 15:33N 26°04' W 080°08'0 0.0
2017-Feb-02 14:33N 26°04' W 080°08'0 0.0
2017-Feb-02 13:33N 26°04' W 080°08'0 0.0
2017-Feb-02 12:34N 26°04' W 080°08'0 0.0
2017-Feb-02 11:33N 26°04' W 080°08'2 2.2
2017-Feb-02 10:33N 26°06' W 080°07'6 5.7
2017-Feb-02 09:34N 26°03' W 080°01'7 6.8
2017-Feb-02 08:34N 26°03' W 079°53'7 7.4
2017-Feb-02 07:33N 26°00' W 079°45'  
2017-Jan-30 06:12N 25°55' W 079°31'6 9.6
2017-Jan-30 05:33N 25°57' W 079°38'10 9.7
2017-Jan-30 04:33N 26°00' W 079°48'9 9.0
2017-Jan-30 03:33N 26°03' W 079°58'9 8.5
2017-Jan-30 02:33N 26°05' W 080°07'2 1.6
2017-Jan-30 01:34N 26°04' W 080°08'0 0.0
2017-Jan-30 00:33N 26°04' W 080°08'0 0.0
2017-Jan-29 23:34N 26°04' W 080°08'0 0.0
2017-Jan-29 22:34N 26°04' W 080°08'0 0.0
2017-Jan-29 21:34N 26°04' W 080°08'0 0.0
2017-Jan-29 20:33N 26°04' W 080°08'0 0.0
2017-Jan-29 19:34N 26°04' W 080°08'0 0.0
2017-Jan-29 18:34N 26°04' W 080°08'2 2.2
2017-Jan-29 17:33N 26°06' W 080°07'1010.1
2017-Jan-29 16:33N 26°03' W 079°56'1010.0
2017-Jan-29 15:33N 25°60' W 079°45'  
Track history (hours):
 
Tides and Currents Weather Stations Pressure Air Temp Water Temp Dewpoint Dewpoint Depression Visibility Wind Speed Wind Dir Waves Ship Positions

Seaexpressii

Last reported at 2017-Feb-07 09:27 UTC. Time now 2017-Feb-19 14:37 UTC.
Position N 26°15' W 079°35'.
Warning: this ship's position is 12 days out of date.

Length 37 m; draft 2.2 m.

Type: Ship (hazmat cat C). MMSI: 356449000.

Date/timePositionNaut miles runAvg speedWind from/ knotsBaromVisibWave heightAir tempDewpointWater temp
2017-Feb-07 09:27N 26°15' W 079°35'910.3
2017-Feb-07 08:33N 26°12' W 079°45'1010.0
2017-Feb-07 07:33N 26°09' W 079°55'10 9.8
2017-Feb-07 06:33N 26°06' W 080°06'3 2.8
2017-Feb-07 05:33N 26°04' W 080°08'0 0.1
2017-Feb-07 04:33N 26°04' W 080°08'0 0.0
2017-Feb-07 03:34N 26°04' W 080°08'0 0.0
2017-Feb-07 02:33N 26°04' W 080°08'0 0.0
2017-Feb-07 01:34N 26°04' W 080°08'4 4.2
2017-Feb-07 00:34N 26°05' W 080°03'1111.0
2017-Feb-06 23:33N 26°01' W 079°52'1110.6
2017-Feb-06 22:33N 25°58' W 079°40'2 0.1
2017-Feb-05 04:34N 25°59' W 079°43'8 7.9
2017-Feb-05 03:33N 26°01' W 079°51'8 7.9
2017-Feb-05 02:33N 26°04' W 079°59'7 6.8
2017-Feb-05 01:33N 26°04' W 080°07'1 0.8
2017-Feb-05 00:33N 26°04' W 080°08'0 0.0
2017-Feb-04 23:33N 26°04' W 080°08'0 0.1
2017-Feb-04 22:33N 26°04' W 080°08'0 0.1
2017-Feb-04 21:33N 26°04' W 080°08'0 0.0
2017-Feb-04 20:33N 26°04' W 080°08'0 0.0
2017-Feb-04 19:33N 26°04' W 080°08'0 0.0
2017-Feb-04 18:34N 26°04' W 080°08'5 5.4
2017-Feb-04 17:34N 26°04' W 080°02'1111.0
2017-Feb-04 16:34N 26°01' W 079°50'11 0.3
2017-Feb-02 21:26N 25°57' W 079°39'8 8.9
2017-Feb-02 20:34N 25°59' W 079°47'8 8.0
2017-Feb-02 19:33N 26°02' W 079°55'8 7.8
2017-Feb-02 18:33N 26°05' W 080°03'4 4.1
2017-Feb-02 17:33N 26°04' W 080°08'0 0.0
2017-Feb-02 16:33N 26°04' W 080°08'0 0.0
2017-Feb-02 15:33N 26°04' W 080°08'0 0.0
2017-Feb-02 14:33N 26°04' W 080°08'0 0.0
2017-Feb-02 13:33N 26°04' W 080°08'0 0.0
2017-Feb-02 12:34N 26°04' W 080°08'0 0.0
2017-Feb-02 11:33N 26°04' W 080°08'2 2.2
2017-Feb-02 10:33N 26°06' W 080°07'6 5.7
2017-Feb-02 09:34N 26°03' W 080°01'7 6.8
2017-Feb-02 08:34N 26°03' W 079°53'7 7.4
2017-Feb-02 07:33N 26°00' W 079°45'  
2017-Jan-30 06:12N 25°55' W 079°31'6 9.6
2017-Jan-30 05:33N 25°57' W 079°38'10 9.7
2017-Jan-30 04:33N 26°00' W 079°48'9 9.0
2017-Jan-30 03:33N 26°03' W 079°58'9 8.5
2017-Jan-30 02:33N 26°05' W 080°07'2 1.6
2017-Jan-30 01:34N 26°04' W 080°08'0 0.0
2017-Jan-30 00:33N 26°04' W 080°08'0 0.0
2017-Jan-29 23:34N 26°04' W 080°08'0 0.0
2017-Jan-29 22:34N 26°04' W 080°08'0 0.0
2017-Jan-29 21:34N 26°04' W 080°08'0 0.0
2017-Jan-29 20:33N 26°04' W 080°08'0 0.0
2017-Jan-29 19:34N 26°04' W 080°08'0 0.0
2017-Jan-29 18:34N 26°04' W 080°08'2 2.2
2017-Jan-29 17:33N 26°06' W 080°07'1010.1
2017-Jan-29 16:33N 26°03' W 079°56'1010.0
2017-Jan-29 15:33N 25°60' W 079°45'  

Dump ship's entire track history